Enderlin, North Dakota
Current Conditions -  °F | °C
As of 2:15 AM on Monday 24 Nov 2014 (Local Time) from KGWR Reporting Station
Overcast Overcast  
Wind Chill: -16°   Ceiling: 2000
Heat Index: -7°   Visibility: 10mi
Dew Point: -11°   Wind: 23mph
Humidity: 74%   Direction: 330°NNW
Pressure: 29.61"   Gusts: 26mph
Location:  46.62°N, 97.6°W
Report Text: KGWR 240815Z AUTO 33020G23KT 10SM SCT015 BKN020 OVC049 M07/M11 A2961 RMK A01 P000
Loading
Personal Weather Stations






























Interactive Weather Map New forecast layout! Learn more

10-Day Weather Forecast

Advertisements
Track Severe Weather on mobile